This demonstration page uses our WeatherBlox Daily Observations layout. Learn more.

41.55636, -103.73856

Hourly Observations for June 11, 2017

Temp ( °F °C ) Dew Point ( °F °C ) Humidity (%) Winds ( mph kmh ) Pressure ( in mb ) Visibility ( mi km ) Precip ( " mm )
12:53 am 00:53 Clear 65 18.3 54 12.2 68 68 SSE 5 7 29.42 996 10 16.0934 0 0
1:53 am 01:53 Clear 60 15.6 54 12.2 80 80 W 5 7 29.43 997 10 16.0934 0 0
2:53 am 02:53 Clear 61 16.1 54 12.2 78 78 WNW 10 17 29.44 997 10 16.0934 0 0
3:53 am 03:53 Clear 60 15.6 53 11.7 78 78 NW 6 9 29.49 999 10 16.0934 0 0
4:53 am 04:53 Clear 59 15 50 10 72 72 N 17 28 29.54 1001 10 16.0934 0 0
5:53 am 05:53 Sunny 58 14.4 49 9.4 72 72 NNE 21 33 29.58 1002 10 16.0934 0 0
6:53 am 06:53 Mostly Sunny 61 16.1 50 10 67 67 NW 12 19 29.66 1004 10 16.0934 0 0
7:53 am 07:53 Sunny 65 18.3 51 10.6 61 61 NW 8 13 29.69 1005 10 16.0934 0 0
8:53 am 08:53 Sunny 68 20 51 10.6 55 55 NNW 15 24 29.72 1007 10 16.0934 0 0
9:53 am 09:53 Sunny 70 21.1 51 10.6 51 51 NNW 14 22 29.73 1007 10 16.0934 0 0
10:53 am 10:53 Sunny 74 23.3 52 11.1 46 46 NNW 14 22 29.72 1007 10 16.0934 0 0
11:53 am 11:53 Sunny 78 25.6 52 11.1 40 40 NNW 13 20 29.72 1006 10 16.0934 0 0
12:53 pm 12:53 Sunny 81 27.2 53 11.7 38 38 NNE 14 22 29.71 1006 10 16.0934 0 0
1:53 pm 13:53 Sunny 81 27.2 53 11.7 38 38 NE 17 28 29.71 1006 10 16.0934 0 0
2:53 pm 14:53 Sunny 82 27.8 55 12.8 40 40 NE 17 28 29.7 1006 10 16.0934 0 0
3:53 pm 15:53 Partly Cloudy 83 28.3 54 12.2 37 37 ESE 15 24 29.69 1006 10 16.0934 0 0
4:53 pm 16:53 Partly Cloudy 82 27.8 54 12.2 38 38 E 15 24 29.7 1006 10 16.0934 0 0
5:53 pm 17:53 Partly Cloudy 82 27.8 55 12.8 40 40 E 15 24 29.7 1006 10 16.0934 0 0
6:53 pm 18:53 Mostly Sunny 81 27.2 56 13.3 42 42 E 17 28 29.7 1006 10 16.0934 0 0
7:53 pm 19:53 Mostly Sunny 79 26.1 55 12.8 44 44 E 16 26 29.7 1006 10 16.0934 0 0
8:53 pm 20:53 Mostly Clear 75 23.9 56 13.3 52 52 E 10 17 29.7 1006 10 16.0934 0 0
9:53 pm 21:53 Mostly Cloudy 73 22.8 55 12.8 53 53 ENE 12 19 29.72 1007 10 16.0934 0 0
10:53 pm 22:53 Mostly Cloudy 71 21.7 53 11.7 53 53 E 14 22 29.73 1007 10 16.0934 0 0
11:53 pm 23:53 Mostly Cloudy 69 20.6 53 11.7 57 57 ESE 10 17 29.73 1007 10 16.0934 0 0

Powered by AerisWeather